sensor_id;sensor_type;location;lat;lon;timestamp;pressure;altitude;pressure_sealevel;temperature;humidity
70015;BME280;57358;51.094;6.760;2023-08-06T00:00:29;99939.97;;;14.20;100.00
70015;BME280;57358;51.094;6.760;2023-08-06T00:02:55;99992.13;;;14.50;100.00
70015;BME280;57358;51.094;6.760;2023-08-06T00:05:22;99992.22;;;14.49;100.00
70015;BME280;57358;51.094;6.760;2023-08-06T00:07:48;100003.16;;;14.55;100.00
70015;BME280;57358;51.094;6.760;2023-08-06T00:10:16;100010.47;;;14.52;100.00
70015;BME280;57358;51.094;6.760;2023-08-06T00:12:43;99991.28;;;14.61;100.00
70015;BME280;57358;51.094;6.760;2023-08-06T00:15:10;99975.06;;;14.43;100.00
70015;BME280;57358;51.094;6.760;2023-08-06T00:17:37;99943.69;;;14.18;100.00
70015;BME280;57358;51.094;6.760;2023-08-06T00:20:04;99988.50;;;14.63;100.00
70015;BME280;57358;51.094;6.760;2023-08-06T00:22:36;99959.13;;;14.56;100.00
70015;BME280;57358;51.094;6.760;2023-08-06T00:25:04;99951.25;;;14.33;100.00
70015;BME280;57358;51.094;6.760;2023-08-06T00:27:31;99916.22;;;14.09;100.00
70015;BME280;57358;51.094;6.760;2023-08-06T00:29:59;99983.13;;;14.30;100.00
70015;BME280;57358;51.094;6.760;2023-08-06T00:32:25;99995.84;;;14.36;100.00
70015;BME280;57358;51.094;6.760;2023-08-06T00:34:52;100007.50;;;14.34;100.00
70015;BME280;57358;51.094;6.760;2023-08-06T00:37:18;99951.00;;;14.14;100.00
70015;BME280;57358;51.094;6.760;2023-08-06T00:39:44;99949.47;;;14.11;100.00
70015;BME280;57358;51.094;6.760;2023-08-06T00:42:11;100002.44;;;14.53;100.00
70015;BME280;57358;51.094;6.760;2023-08-06T00:44:39;100022.13;;;14.61;100.00
70015;BME280;57358;51.094;6.760;2023-08-06T00:47:07;99984.78;;;14.54;100.00
70015;BME280;57358;51.094;6.760;2023-08-06T00:49:36;99958.50;;;14.41;100.00
70015;BME280;57358;51.094;6.760;2023-08-06T00:52:04;99944.03;;;14.35;100.00
70015;BME280;57358;51.094;6.760;2023-08-06T00:54:31;99974.00;;;14.57;100.00
70015;BME280;57358;51.094;6.760;2023-08-06T00:56:59;99769.69;;;13.39;100.00
70015;BME280;57358;51.094;6.760;2023-08-06T00:59:28;99954.31;;;14.50;100.00
70015;BME280;57358;51.094;6.760;2023-08-06T01:01:55;99954.28;;;14.72;100.00
70015;BME280;57358;51.094;6.760;2023-08-06T01:04:22;99971.31;;;14.80;100.00
70015;BME280;57358;51.094;6.760;2023-08-06T01:06:59;99908.72;;;14.48;100.00
70015;BME280;57358;51.094;6.760;2023-08-06T01:09:48;99890.69;;;14.53;100.00
70015;BME280;57358;51.094;6.760;2023-08-06T01:12:29;99957.94;;;14.92;100.00
70015;BME280;57358;51.094;6.760;2023-08-06T01:17:33;99950.09;;;15.02;100.00
70015;BME280;57358;51.094;6.760;2023-08-06T01:20:00;99776.22;;;13.89;100.00
70015;BME280;57358;51.094;6.760;2023-08-06T01:22:26;99944.28;;;15.08;100.00
70015;BME280;57358;51.094;6.760;2023-08-06T01:24:53;99898.09;;;14.70;100.00
70015;BME280;57358;51.094;6.760;2023-08-06T01:27:27;99874.84;;;14.85;100.00
70015;BME280;57358;51.094;6.760;2023-08-06T01:30:10;99869.00;;;14.82;100.00
70015;BME280;57358;51.094;6.760;2023-08-06T01:32:42;99884.19;;;14.68;100.00
70015;BME280;57358;51.094;6.760;2023-08-06T01:35:11;99761.22;;;13.90;100.00
70015;BME280;57358;51.094;6.760;2023-08-06T01:37:38;99904.81;;;14.74;100.00
70015;BME280;57358;51.094;6.760;2023-08-06T01:40:14;99878.19;;;14.66;100.00
70015;BME280;57358;51.094;6.760;2023-08-06T01:42:40;99897.91;;;14.83;100.00
70015;BME280;57358;51.094;6.760;2023-08-06T01:45:07;99886.44;;;14.73;100.00
70015;BME280;57358;51.094;6.760;2023-08-06T01:47:35;99928.44;;;15.08;100.00
70015;BME280;57358;51.094;6.760;2023-08-06T01:50:02;99882.78;;;14.85;100.00
70015;BME280;57358;51.094;6.760;2023-08-06T01:52:28;99826.88;;;14.48;100.00
70015;BME280;57358;51.094;6.760;2023-08-06T01:54:55;99829.41;;;14.49;100.00
70015;BME280;57358;51.094;6.760;2023-08-06T01:57:21;99829.63;;;14.58;100.00
70015;BME280;57358;51.094;6.760;2023-08-06T01:59:48;99849.34;;;14.74;100.00
70015;BME280;57358;51.094;6.760;2023-08-06T02:02:14;99879.56;;;15.03;100.00
70015;BME280;57358;51.094;6.760;2023-08-06T02:04:41;99850.56;;;14.70;100.00
70015;BME280;57358;51.094;6.760;2023-08-06T02:07:07;99848.91;;;14.69;100.00
70015;BME280;57358;51.094;6.760;2023-08-06T02:09:33;99911.28;;;15.03;100.00
70015;BME280;57358;51.094;6.760;2023-08-06T02:12:02;99904.00;;;14.95;100.00
70015;BME280;57358;51.094;6.760;2023-08-06T02:14:28;99872.72;;;14.58;100.00
70015;BME280;57358;51.094;6.760;2023-08-06T02:16:55;99863.44;;;14.52;100.00
70015;BME280;57358;51.094;6.760;2023-08-06T02:19:21;99796.56;;;13.99;100.00
70015;BME280;57358;51.094;6.760;2023-08-06T02:21:48;99850.94;;;14.33;100.00
70015;BME280;57358;51.094;6.760;2023-08-06T02:24:14;99871.56;;;14.40;100.00
70015;BME280;57358;51.094;6.760;2023-08-06T02:26:41;99837.25;;;14.28;100.00
70015;BME280;57358;51.094;6.760;2023-08-06T02:29:07;99749.81;;;13.57;100.00
70015;BME280;57358;51.094;6.760;2023-08-06T02:31:34;99897.09;;;14.39;100.00
70015;BME280;57358;51.094;6.760;2023-08-06T02:34:00;99889.59;;;14.12;100.00
70015;BME280;57358;51.094;6.760;2023-08-06T02:36:26;99816.91;;;13.64;100.00
70015;BME280;57358;51.094;6.760;2023-08-06T02:38:55;99846.97;;;13.84;100.00
70015;BME280;57358;51.094;6.760;2023-08-06T02:41:22;99876.91;;;14.06;100.00
70015;BME280;57358;51.094;6.760;2023-08-06T02:43:48;99878.72;;;13.94;100.00
70015;BME280;57358;51.094;6.760;2023-08-06T02:46:14;99848.28;;;13.56;100.00
70015;BME280;57358;51.094;6.760;2023-08-06T02:48:41;99915.16;;;14.00;100.00
70015;BME280;57358;51.094;6.760;2023-08-06T02:51:07;99880.91;;;13.77;100.00
70015;BME280;57358;51.094;6.760;2023-08-06T02:53:34;99931.47;;;14.05;100.00
70015;BME280;57358;51.094;6.760;2023-08-06T02:56:00;99862.31;;;13.79;100.00
70015;BME280;57358;51.094;6.760;2023-08-06T02:58:27;99905.19;;;14.15;100.00
70015;BME280;57358;51.094;6.760;2023-08-06T03:01:04;99901.00;;;14.12;100.00
70015;BME280;57358;51.094;6.760;2023-08-06T03:03:32;99912.38;;;14.24;100.00
70015;BME280;57358;51.094;6.760;2023-08-06T03:05:59;99924.69;;;14.35;100.00
70015;BME280;57358;51.094;6.760;2023-08-06T03:08:26;99858.56;;;14.04;100.00
70015;BME280;57358;51.094;6.760;2023-08-06T03:10:53;99848.00;;;14.04;100.00
70015;BME280;57358;51.094;6.760;2023-08-06T03:13:19;99898.88;;;14.50;100.00
70015;BME280;57358;51.094;6.760;2023-08-06T03:15:53;99903.50;;;14.69;100.00
70015;BME280;57358;51.094;6.760;2023-08-06T03:18:20;99819.16;;;14.24;100.00
70015;BME280;57358;51.094;6.760;2023-08-06T03:20:47;99892.09;;;14.68;100.00
70015;BME280;57358;51.094;6.760;2023-08-06T03:23:14;99924.47;;;14.82;100.00
70015;BME280;57358;51.094;6.760;2023-08-06T03:25:40;99883.94;;;14.71;100.00
70015;BME280;57358;51.094;6.760;2023-08-06T03:28:07;99895.97;;;14.85;100.00
70015;BME280;57358;51.094;6.760;2023-08-06T03:30:33;99883.75;;;14.84;100.00
70015;BME280;57358;51.094;6.760;2023-08-06T03:33:00;99722.19;;;14.05;100.00
70015;BME280;57358;51.094;6.760;2023-08-06T03:35:26;99742.97;;;13.66;100.00
70015;BME280;57358;51.094;6.760;2023-08-06T03:37:53;99881.09;;;14.52;100.00
70015;BME280;57358;51.094;6.760;2023-08-06T03:40:19;99882.91;;;14.51;100.00
70015;BME280;57358;51.094;6.760;2023-08-06T03:42:46;99870.59;;;14.73;100.00
70015;BME280;57358;51.094;6.760;2023-08-06T03:45:12;99883.03;;;15.03;100.00
70015;BME280;57358;51.094;6.760;2023-08-06T03:47:38;99812.69;;;14.28;100.00
70015;BME280;57358;51.094;6.760;2023-08-06T03:50:05;99829.38;;;14.17;100.00
70015;BME280;57358;51.094;6.760;2023-08-06T03:52:32;99749.38;;;13.73;100.00
70015;BME280;57358;51.094;6.760;2023-08-06T03:54:58;99872.34;;;14.51;100.00
70015;BME280;57358;51.094;6.760;2023-08-06T03:57:24;99907.94;;;14.80;100.00
70015;BME280;57358;51.094;6.760;2023-08-06T03:59:53;99816.88;;;14.19;100.00
70015;BME280;57358;51.094;6.760;2023-08-06T04:02:21;99899.81;;;14.60;100.00
70015;BME280;57358;51.094;6.760;2023-08-06T04:04:48;99885.41;;;14.53;100.00
70015;BME280;57358;51.094;6.760;2023-08-06T04:07:15;99889.53;;;14.46;100.00
70015;BME280;57358;51.094;6.760;2023-08-06T04:09:56;99912.84;;;14.73;100.00
70015;BME280;57358;51.094;6.760;2023-08-06T04:12:22;99921.13;;;14.80;100.00
70015;BME280;57358;51.094;6.760;2023-08-06T04:14:50;99924.59;;;14.80;100.00
70015;BME280;57358;51.094;6.760;2023-08-06T04:17:19;99880.25;;;14.63;100.00
70015;BME280;57358;51.094;6.760;2023-08-06T04:19:54;99913.22;;;14.80;100.00
70015;BME280;57358;51.094;6.760;2023-08-06T04:22:21;99918.22;;;14.83;100.00
70015;BME280;57358;51.094;6.760;2023-08-06T04:24:47;99883.97;;;14.60;100.00
70015;BME280;57358;51.094;6.760;2023-08-06T04:27:15;99930.59;;;14.82;100.00
70015;BME280;57358;51.094;6.760;2023-08-06T04:29:42;99874.53;;;14.58;100.00
70015;BME280;57358;51.094;6.760;2023-08-06T04:32:10;99904.78;;;14.86;100.00
70015;BME280;57358;51.094;6.760;2023-08-06T04:34:37;99748.53;;;13.84;100.00
70015;BME280;57358;51.094;6.760;2023-08-06T04:37:06;99920.53;;;14.76;100.00
70015;BME280;57358;51.094;6.760;2023-08-06T04:39:32;99924.28;;;14.73;100.00
70015;BME280;57358;51.094;6.760;2023-08-06T04:41:59;99762.00;;;13.58;100.00
70015;BME280;57358;51.094;6.760;2023-08-06T04:44:25;99926.91;;;14.73;100.00
70015;BME280;57358;51.094;6.760;2023-08-06T04:46:52;99868.66;;;14.43;100.00
70015;BME280;57358;51.094;6.760;2023-08-06T04:49:20;99920.34;;;14.68;100.00
70015;BME280;57358;51.094;6.760;2023-08-06T04:51:47;99898.66;;;14.42;100.00
70015;BME280;57358;51.094;6.760;2023-08-06T04:54:13;99937.50;;;14.62;100.00
70015;BME280;57358;51.094;6.760;2023-08-06T04:56:40;99834.78;;;14.15;100.00
70015;BME280;57358;51.094;6.760;2023-08-06T04:59:06;99898.03;;;14.49;100.00
70015;BME280;57358;51.094;6.760;2023-08-06T05:01:33;99914.59;;;14.51;100.00
70015;BME280;57358;51.094;6.760;2023-08-06T05:03:59;99888.00;;;14.32;100.00
70015;BME280;57358;51.094;6.760;2023-08-06T05:06:26;99870.38;;;14.21;100.00
70015;BME280;57358;51.094;6.760;2023-08-06T05:08:52;99933.41;;;14.69;100.00
70015;BME280;57358;51.094;6.760;2023-08-06T05:11:19;99976.31;;;14.94;100.00
70015;BME280;57358;51.094;6.760;2023-08-06T05:13:45;99949.97;;;15.25;100.00
70015;BME280;57358;51.094;6.760;2023-08-06T05:16:12;99913.53;;;15.07;100.00
70015;BME280;57358;51.094;6.760;2023-08-06T05:18:38;99893.41;;;14.74;100.00
70015;BME280;57358;51.094;6.760;2023-08-06T05:21:05;99858.09;;;14.43;100.00
70015;BME280;57358;51.094;6.760;2023-08-06T05:23:31;99945.03;;;14.99;100.00
70015;BME280;57358;51.094;6.760;2023-08-06T05:25:58;99954.53;;;15.02;100.00
70015;BME280;57358;51.094;6.760;2023-08-06T05:28:24;99894.16;;;14.65;100.00
70015;BME280;57358;51.094;6.760;2023-08-06T05:30:50;99918.06;;;14.95;100.00
70015;BME280;57358;51.094;6.760;2023-08-06T05:33:17;99901.09;;;14.98;100.00
70015;BME280;57358;51.094;6.760;2023-08-06T05:35:43;99910.13;;;15.16;100.00
70015;BME280;57358;51.094;6.760;2023-08-06T05:38:10;99932.75;;;15.30;100.00
70015;BME280;57358;51.094;6.760;2023-08-06T05:40:36;99910.06;;;15.28;100.00
70015;BME280;57358;51.094;6.760;2023-08-06T05:43:03;99937.06;;;15.52;100.00
70015;BME280;57358;51.094;6.760;2023-08-06T05:45:29;99868.66;;;15.17;100.00
70015;BME280;57358;51.094;6.760;2023-08-06T05:47:55;99905.50;;;15.61;100.00
70015;BME280;57358;51.094;6.760;2023-08-06T05:50:24;99924.75;;;15.84;100.00
70015;BME280;57358;51.094;6.760;2023-08-06T05:52:51;99900.94;;;15.84;100.00
70015;BME280;57358;51.094;6.760;2023-08-06T05:55:19;99916.31;;;16.09;100.00
70015;BME280;57358;51.094;6.760;2023-08-06T05:57:46;99903.97;;;16.39;100.00
70015;BME280;57358;51.094;6.760;2023-08-06T06:00:12;99706.09;;;15.23;100.00
70015;BME280;57358;51.094;6.760;2023-08-06T06:02:39;99881.84;;;16.40;100.00
70015;BME280;57358;51.094;6.760;2023-08-06T06:05:06;99779.22;;;15.84;100.00
70015;BME280;57358;51.094;6.760;2023-08-06T06:07:32;99822.59;;;16.22;100.00
70015;BME280;57358;51.094;6.760;2023-08-06T06:09:58;99773.75;;;15.85;100.00
70015;BME280;57358;51.094;6.760;2023-08-06T06:12:25;99872.50;;;16.36;100.00
70015;BME280;57358;51.094;6.760;2023-08-06T06:14:52;99874.72;;;16.41;100.00
70015;BME280;57358;51.094;6.760;2023-08-06T06:17:19;99851.97;;;16.19;100.00
70015;BME280;57358;51.094;6.760;2023-08-06T06:19:45;99835.25;;;16.18;100.00
70015;BME280;57358;51.094;6.760;2023-08-06T06:22:15;99821.19;;;16.08;100.00
70015;BME280;57358;51.094;6.760;2023-08-06T06:24:41;99867.47;;;16.52;100.00
70015;BME280;57358;51.094;6.760;2023-08-06T06:27:07;99873.91;;;16.50;100.00
70015;BME280;57358;51.094;6.760;2023-08-06T06:29:34;99809.47;;;16.10;100.00
70015;BME280;57358;51.094;6.760;2023-08-06T06:32:00;99871.50;;;16.47;100.00
70015;BME280;57358;51.094;6.760;2023-08-06T06:34:27;99872.22;;;16.49;100.00
70015;BME280;57358;51.094;6.760;2023-08-06T06:36:53;99853.25;;;16.53;100.00
70015;BME280;57358;51.094;6.760;2023-08-06T06:39:20;99872.09;;;16.60;100.00
70015;BME280;57358;51.094;6.760;2023-08-06T06:41:47;99846.00;;;16.65;100.00
70015;BME280;57358;51.094;6.760;2023-08-06T06:44:14;99851.47;;;16.64;100.00
70015;BME280;57358;51.094;6.760;2023-08-06T06:46:41;99809.06;;;16.64;100.00
70015;BME280;57358;51.094;6.760;2023-08-06T06:49:07;99867.03;;;17.15;100.00
70015;BME280;57358;51.094;6.760;2023-08-06T06:51:34;99811.41;;;16.96;100.00
70015;BME280;57358;51.094;6.760;2023-08-06T06:54:00;99831.47;;;17.18;100.00
70015;BME280;57358;51.094;6.760;2023-08-06T06:56:26;99771.94;;;16.73;100.00
70015;BME280;57358;51.094;6.760;2023-08-06T06:58:53;99821.97;;;17.06;100.00
70015;BME280;57358;51.094;6.760;2023-08-06T07:01:19;99752.59;;;16.53;100.00
70015;BME280;57358;51.094;6.760;2023-08-06T07:03:46;99686.44;;;16.24;100.00
70015;BME280;57358;51.094;6.760;2023-08-06T07:06:12;99720.56;;;16.47;100.00
70015;BME280;57358;51.094;6.760;2023-08-06T07:08:39;99795.06;;;17.01;100.00
70015;BME280;57358;51.094;6.760;2023-08-06T07:11:06;99802.78;;;17.31;100.00
70015;BME280;57358;51.094;6.760;2023-08-06T07:13:34;99749.28;;;17.08;100.00
70015;BME280;57358;51.094;6.760;2023-08-06T07:16:00;99731.81;;;17.15;100.00
70015;BME280;57358;51.094;6.760;2023-08-06T07:18:27;99752.59;;;17.48;100.00
70015;BME280;57358;51.094;6.760;2023-08-06T07:20:55;99754.16;;;17.68;100.00
70015;BME280;57358;51.094;6.760;2023-08-06T07:23:23;99715.34;;;17.67;100.00
70015;BME280;57358;51.094;6.760;2023-08-06T07:25:50;99706.97;;;17.90;100.00
70015;BME280;57358;51.094;6.760;2023-08-06T07:28:16;99650.63;;;17.78;100.00
70015;BME280;57358;51.094;6.760;2023-08-06T07:30:44;99589.59;;;17.42;100.00
70015;BME280;57358;51.094;6.760;2023-08-06T07:33:11;99689.44;;;17.97;100.00
70015;BME280;57358;51.094;6.760;2023-08-06T07:35:38;99655.44;;;17.47;100.00
70015;BME280;57358;51.094;6.760;2023-08-06T07:38:04;99645.84;;;17.18;100.00
70015;BME280;57358;51.094;6.760;2023-08-06T07:40:31;99718.44;;;17.63;100.00
70015;BME280;57358;51.094;6.760;2023-08-06T07:42:57;99654.69;;;17.54;100.00
70015;BME280;57358;51.094;6.760;2023-08-06T07:45:24;99701.94;;;17.69;100.00
70015;BME280;57358;51.094;6.760;2023-08-06T07:47:50;99715.59;;;17.28;100.00
70015;BME280;57358;51.094;6.760;2023-08-06T07:50:17;99751.28;;;17.34;100.00
70015;BME280;57358;51.094;6.760;2023-08-06T07:52:44;99736.44;;;17.41;100.00
70015;BME280;57358;51.094;6.760;2023-08-06T07:55:10;99713.41;;;17.14;100.00
70015;BME280;57358;51.094;6.760;2023-08-06T07:57:36;99663.31;;;16.83;100.00
70015;BME280;57358;51.094;6.760;2023-08-06T08:00:04;99700.69;;;17.18;100.00
70015;BME280;57358;51.094;6.760;2023-08-06T08:02:31;99751.06;;;17.45;100.00
70015;BME280;57358;51.094;6.760;2023-08-06T08:04:58;99808.69;;;17.53;100.00
70015;BME280;57358;51.094;6.760;2023-08-06T08:07:24;99659.97;;;16.34;100.00
70015;BME280;57358;51.094;6.760;2023-08-06T08:09:50;99727.59;;;16.85;100.00
70015;BME280;57358;51.094;6.760;2023-08-06T08:12:17;99765.94;;;16.91;100.00
70015;BME280;57358;51.094;6.760;2023-08-06T08:14:43;99837.34;;;17.49;100.00
70015;BME280;57358;51.094;6.760;2023-08-06T08:17:11;99600.28;;;15.83;100.00
70015;BME280;57358;51.094;6.760;2023-08-06T08:19:40;99796.13;;;17.18;100.00
70015;BME280;57358;51.094;6.760;2023-08-06T08:22:07;99859.59;;;17.29;100.00
70015;BME280;57358;51.094;6.760;2023-08-06T08:24:34;99813.78;;;16.99;100.00
70015;BME280;57358;51.094;6.760;2023-08-06T08:27:01;99873.22;;;17.44;100.00
70015;BME280;57358;51.094;6.760;2023-08-06T08:29:27;99894.69;;;17.60;100.00
70015;BME280;57358;51.094;6.760;2023-08-06T08:31:53;99886.31;;;17.55;100.00
70015;BME280;57358;51.094;6.760;2023-08-06T08:34:20;99872.44;;;17.24;100.00
70015;BME280;57358;51.094;6.760;2023-08-06T08:36:47;99905.81;;;17.73;100.00
70015;BME280;57358;51.094;6.760;2023-08-06T08:39:15;99863.75;;;17.41;100.00
70015;BME280;57358;51.094;6.760;2023-08-06T08:41:42;99898.06;;;17.90;100.00
70015;BME280;57358;51.094;6.760;2023-08-06T08:44:09;99875.72;;;17.92;100.00
70015;BME280;57358;51.094;6.760;2023-08-06T08:46:40;99826.72;;;17.77;100.00
70015;BME280;57358;51.094;6.760;2023-08-06T08:49:07;99889.69;;;18.58;100.00
70015;BME280;57358;51.094;6.760;2023-08-06T08:51:34;99649.53;;;17.53;100.00
70015;BME280;57358;51.094;6.760;2023-08-06T08:54:07;99735.50;;;18.76;100.00
70015;BME280;57358;51.094;6.760;2023-08-06T08:56:34;99785.78;;;19.90;100.00
70015;BME280;57358;51.094;6.760;2023-08-06T08:59:01;99714.91;;;20.71;93.95
70015;BME280;57358;51.094;6.760;2023-08-06T09:01:28;99638.69;;;20.85;88.16
70015;BME280;57358;51.094;6.760;2023-08-06T09:03:55;99488.69;;;20.04;83.95
70015;BME280;57358;51.094;6.760;2023-08-06T09:06:25;99512.00;;;20.50;81.72
70015;BME280;57358;51.094;6.760;2023-08-06T09:09:01;99477.81;;;20.22;82.10
70015;BME280;57358;51.094;6.760;2023-08-06T09:11:36;99587.09;;;20.70;83.31
70015;BME280;57358;51.094;6.760;2023-08-06T09:14:07;99611.47;;;20.98;83.36
70015;BME280;57358;51.094;6.760;2023-08-06T09:16:35;99608.19;;;21.19;83.20
70015;BME280;57358;51.094;6.760;2023-08-06T09:21:39;99427.34;;;20.60;78.31
70015;BME280;57358;51.094;6.760;2023-08-06T09:24:10;99463.03;;;20.11;81.21
70015;BME280;57358;51.094;6.760;2023-08-06T09:26:37;99636.53;;;20.89;83.39
70015;BME280;57358;51.094;6.760;2023-08-06T09:29:05;99416.22;;;20.48;80.64
70015;BME280;57358;51.094;6.760;2023-08-06T09:31:49;99577.59;;;22.14;78.58
70015;BME280;57358;51.094;6.760;2023-08-06T09:34:20;99499.00;;;22.08;75.54
70015;BME280;57358;51.094;6.760;2023-08-06T09:36:52;99414.91;;;21.37;76.24
70015;BME280;57358;51.094;6.760;2023-08-06T09:39:26;99433.34;;;20.54;78.22
70015;BME280;57358;51.094;6.760;2023-08-06T09:42:00;99541.72;;;20.30;81.56
70015;BME280;57358;51.094;6.760;2023-08-06T09:44:30;99544.28;;;19.66;83.26
70015;BME280;57358;51.094;6.760;2023-08-06T09:46:58;99641.38;;;19.21;88.15
70015;BME280;57358;51.094;6.760;2023-08-06T09:49:27;99694.19;;;18.56;92.65
70015;BME280;57358;51.094;6.760;2023-08-06T09:51:54;99721.09;;;17.90;98.85
70015;BME280;57358;51.094;6.760;2023-08-06T09:54:23;99781.47;;;17.51;100.00
70015;BME280;57358;51.094;6.760;2023-08-06T09:56:54;99826.97;;;17.19;100.00
70015;BME280;57358;51.094;6.760;2023-08-06T09:59:23;99802.34;;;16.69;100.00
70015;BME280;57358;51.094;6.760;2023-08-06T10:01:50;99839.44;;;16.69;100.00
70015;BME280;57358;51.094;6.760;2023-08-06T10:04:16;99913.66;;;16.89;100.00
70015;BME280;57358;51.094;6.760;2023-08-06T10:06:48;99897.72;;;16.69;100.00
70015;BME280;57358;51.094;6.760;2023-08-06T10:09:14;99918.81;;;16.81;100.00
70015;BME280;57358;51.094;6.760;2023-08-06T10:11:42;99952.72;;;16.97;100.00
70015;BME280;57358;51.094;6.760;2023-08-06T10:14:12;99968.78;;;17.05;100.00
70015;BME280;57358;51.094;6.760;2023-08-06T10:16:42;99959.16;;;16.94;100.00
70015;BME280;57358;51.094;6.760;2023-08-06T10:19:12;99949.19;;;16.77;100.00
70015;BME280;57358;51.094;6.760;2023-08-06T10:21:40;99963.56;;;16.64;100.00
70015;BME280;57358;51.094;6.760;2023-08-06T10:24:07;99948.00;;;16.30;100.00
70015;BME280;57358;51.094;6.760;2023-08-06T10:26:37;99998.97;;;16.73;100.00
70015;BME280;57358;51.094;6.760;2023-08-06T10:29:36;99861.78;;;15.78;100.00
70015;BME280;57358;51.094;6.760;2023-08-06T10:32:03;99983.38;;;16.70;100.00
70015;BME280;57358;51.094;6.760;2023-08-06T10:34:59;99991.38;;;16.99;100.00
70015;BME280;57358;51.094;6.760;2023-08-06T10:37:36;99937.06;;;16.74;100.00
70015;BME280;57358;51.094;6.760;2023-08-06T10:40:06;99955.41;;;16.37;100.00
70015;BME280;57358;51.094;6.760;2023-08-06T10:42:33;99969.56;;;16.16;100.00
70015;BME280;57358;51.094;6.760;2023-08-06T10:45:12;99984.16;;;16.10;100.00
70015;BME280;57358;51.094;6.760;2023-08-06T10:47:42;100014.88;;;16.23;100.00
70015;BME280;57358;51.094;6.760;2023-08-06T10:50:15;100016.41;;;16.25;100.00
70015;BME280;57358;51.094;6.760;2023-08-06T10:52:44;99929.78;;;15.45;100.00
70015;BME280;57358;51.094;6.760;2023-08-06T10:55:15;100030.22;;;15.77;100.00
70015;BME280;57358;51.094;6.760;2023-08-06T10:57:48;99986.59;;;15.29;100.00
70015;BME280;57358;51.094;6.760;2023-08-06T11:00:14;100050.47;;;15.67;100.00
70015;BME280;57358;51.094;6.760;2023-08-06T11:02:43;100067.84;;;15.81;100.00
70015;BME280;57358;51.094;6.760;2023-08-06T11:05:10;99911.63;;;14.77;100.00
70015;BME280;57358;51.094;6.760;2023-08-06T11:07:38;100042.06;;;15.41;100.00
70015;BME280;57358;51.094;6.760;2023-08-06T11:10:06;100072.97;;;15.72;100.00
70015;BME280;57358;51.094;6.760;2023-08-06T11:12:33;99980.16;;;15.22;100.00
70015;BME280;57358;51.094;6.760;2023-08-06T11:15:01;100071.22;;;15.83;100.00
70015;BME280;57358;51.094;6.760;2023-08-06T11:17:28;100070.06;;;15.75;100.00
70015;BME280;57358;51.094;6.760;2023-08-06T11:19:55;100028.91;;;15.50;100.00
70015;BME280;57358;51.094;6.760;2023-08-06T11:22:22;100042.81;;;15.64;100.00
70015;BME280;57358;51.094;6.760;2023-08-06T11:24:49;100073.66;;;15.95;100.00
70015;BME280;57358;51.094;6.760;2023-08-06T11:27:16;100022.56;;;15.74;100.00
70015;BME280;57358;51.094;6.760;2023-08-06T11:29:44;99998.03;;;15.72;100.00
70015;BME280;57358;51.094;6.760;2023-08-06T11:32:11;100007.81;;;16.02;100.00
70015;BME280;57358;51.094;6.760;2023-08-06T11:34:43;100045.38;;;16.48;100.00
70015;BME280;57358;51.094;6.760;2023-08-06T11:37:09;100015.69;;;16.54;100.00
70015;BME280;57358;51.094;6.760;2023-08-06T11:39:38;99997.69;;;16.48;100.00
70015;BME280;57358;51.094;6.760;2023-08-06T11:42:06;100019.34;;;16.72;100.00
70015;BME280;57358;51.094;6.760;2023-08-06T11:44:35;99972.84;;;16.49;100.00
70015;BME280;57358;51.094;6.760;2023-08-06T11:47:04;100041.31;;;17.04;100.00
70015;BME280;57358;51.094;6.760;2023-08-06T11:49:43;100038.53;;;17.25;100.00
70015;BME280;57358;51.094;6.760;2023-08-06T11:52:22;99997.50;;;16.90;100.00
70015;BME280;57358;51.094;6.760;2023-08-06T11:55:06;100013.56;;;16.98;100.00
70015;BME280;57358;51.094;6.760;2023-08-06T11:57:34;100010.78;;;17.19;100.00
70015;BME280;57358;51.094;6.760;2023-08-06T12:00:03;99996.81;;;17.27;100.00
70015;BME280;57358;51.094;6.760;2023-08-06T12:02:31;99919.09;;;16.97;100.00
70015;BME280;57358;51.094;6.760;2023-08-06T12:05:16;99980.72;;;17.48;100.00
70015;BME280;57358;51.094;6.760;2023-08-06T12:07:48;99969.31;;;17.28;100.00
70015;BME280;57358;51.094;6.760;2023-08-06T12:10:16;99973.78;;;17.27;100.00
70015;BME280;57358;51.094;6.760;2023-08-06T12:12:42;99938.47;;;17.27;99.31
70015;BME280;57358;51.094;6.760;2023-08-06T12:15:10;99969.59;;;17.44;99.01
70015;BME280;57358;51.094;6.760;2023-08-06T12:17:37;99886.47;;;16.97;98.67
70015;BME280;57358;51.094;6.760;2023-08-06T12:20:04;99976.28;;;17.48;99.02
70015;BME280;57358;51.094;6.760;2023-08-06T12:22:32;99964.25;;;17.54;98.94
70015;BME280;57358;51.094;6.760;2023-08-06T12:25:02;99918.66;;;17.31;96.27
70015;BME280;57358;51.094;6.760;2023-08-06T12:27:35;99592.97;;;15.16;95.79
70015;BME280;57358;51.094;6.760;2023-08-06T12:30:02;99885.06;;;16.92;95.78
70015;BME280;57358;51.094;6.760;2023-08-06T12:32:30;99926.91;;;17.08;97.52
70015;BME280;57358;51.094;6.760;2023-08-06T12:34:56;99957.03;;;17.37;96.54
70015;BME280;57358;51.094;6.760;2023-08-06T12:37:24;99831.91;;;16.74;95.33
70015;BME280;57358;51.094;6.760;2023-08-06T12:39:51;99969.84;;;17.41;97.19
70015;BME280;57358;51.094;6.760;2023-08-06T12:42:20;99956.81;;;17.58;96.01
70015;BME280;57358;51.094;6.760;2023-08-06T12:44:48;99939.53;;;17.53;95.31
70015;BME280;57358;51.094;6.760;2023-08-06T12:47:16;99859.13;;;16.96;93.72
70015;BME280;57358;51.094;6.760;2023-08-06T12:49:43;99949.75;;;17.39;95.22
70015;BME280;57358;51.094;6.760;2023-08-06T12:52:09;99884.63;;;17.07;94.93
70015;BME280;57358;51.094;6.760;2023-08-06T12:54:35;99946.41;;;17.37;95.68
70015;BME280;57358;51.094;6.760;2023-08-06T12:57:05;99966.91;;;17.54;95.74
70015;BME280;57358;51.094;6.760;2023-08-06T12:59:33;99894.19;;;17.37;93.68